Time;durP1;ratioP1;P1;durP2;ratioP2;P2;SDS_P1;SDS_P2;PMS_P1;PMS_P2;Temp;Humidity;BMP_temperature;BMP_pressure;BME280_temperature;BME280_humidity;BME280_pressure;Samples;Min_cycle;Max_cycle;Signal;HPM_P1;HPM_P2
2022/01/20 00:00:44;;;;;;;5.63;2.63;;;22.50;31.30;;;;;;5043449;28;20032;-58
2022/01/20 00:03:15;;;;;;;5.15;2.25;;;22.50;31.30;;;;;;5042689;28;20033;-54
2022/01/20 00:27:13;;;;;;;4.38;2.17;;;22.30;31.20;;;;;;5045369;28;20025;-59
2022/01/20 00:30:32;;;;;;;4.22;1.50;;;22.30;31.20;;;;;;5041147;28;20036;-54
2022/01/20 00:32:43;;;;;;;3.95;1.90;;;22.30;31.20;;;;;;5022727;28;20053;-56
2022/01/20 00:35:18;;;;;;;4.57;1.75;;;22.30;31.30;;;;;;5043022;28;20148;-57
2022/01/20 00:37:44;;;;;;;4.38;2.13;;;22.30;31.30;;;;;;5046775;28;20037;-59
2022/01/20 00:40:10;;;;;;;6.78;2.22;;;22.30;31.20;;;;;;5048661;28;20017;-57
2022/01/20 00:42:36;;;;;;;5.10;2.00;;;22.30;31.30;;;;;;5030821;28;20438;-57
2022/01/20 00:45:02;;;;;;;3.70;1.95;;;22.30;31.30;;;;;;5045743;28;20035;-58
2022/01/20 00:47:29;;;;;;;4.38;1.95;;;22.30;31.30;;;;;;5049208;28;20021;-53
2022/01/20 00:49:54;;;;;;;3.55;1.80;;;22.30;31.30;;;;;;5046777;28;20108;-59
2022/01/20 00:52:20;;;;;;;3.55;1.85;;;22.30;31.30;;;;;;5048458;28;20388;-57
2022/01/20 00:54:46;;;;;;;4.10;1.77;;;22.20;31.20;;;;;;5028381;28;20036;-60
2022/01/20 00:57:13;;;;;;;3.00;1.77;;;22.20;31.20;;;;;;5021319;28;20050;-58
2022/01/20 00:59:39;;;;;;;3.95;1.80;;;22.20;31.20;;;;;;5007285;28;20030;-56
2022/01/20 01:02:09;;;;;;;3.03;1.65;;;22.20;31.30;;;;;;5005292;28;20033;-60
2022/01/20 01:04:36;;;;;;;3.83;1.60;;;22.20;31.20;;;;;;5006854;28;20056;-56
2022/01/20 01:09:38;;;;;;;4.07;1.65;;;22.20;31.30;;;;;;5008081;28;20085;-55
2022/01/20 01:12:06;;;;;;;3.60;1.52;;;22.20;31.30;;;;;;5005187;28;20089;-57
2022/01/20 01:14:34;;;;;;;5.07;1.65;;;22.20;31.30;;;;;;5003992;28;20489;-57
2022/01/20 01:24:43;;;;;;;3.03;1.40;;;22.10;31.20;;;;;;5006338;28;20064;-58
2022/01/20 01:27:11;;;;;;;3.53;1.60;;;22.10;31.20;;;;;;5003993;28;20045;-57
2022/01/20 01:32:43;;;;;;;3.90;1.50;;;22.10;31.20;;;;;;5003471;28;20034;-57
2022/01/20 01:35:10;;;;;;;4.15;1.45;;;22.10;31.30;;;;;;5014912;28;20026;-55
2022/01/20 01:38:25;;;;;;;3.38;1.65;;;22.10;31.30;;;;;;5004745;28;20096;-54
2022/01/20 01:40:25;;;;;;;4.30;1.65;;;22.10;31.30;;;;;;5021420;28;20022;-57
2022/01/20 01:42:53;;;;;;;2.33;1.10;;;22.10;31.30;;;;;;5006215;28;20030;-58
2022/01/20 01:45:29;;;;;;;3.88;1.77;;;22.10;31.30;;;;;;5008340;28;20032;-56
2022/01/20 01:47:56;;;;;;;4.25;1.50;;;22.10;31.30;;;;;;5003322;28;20085;-57
2022/01/20 01:50:25;;;;;;;2.95;1.23;;;22.00;31.30;;;;;;5005541;28;20023;-55
2022/01/20 01:52:51;;;;;;;3.45;1.35;;;22.00;31.30;;;;;;5005668;28;20037;-56
2022/01/20 01:55:18;;;;;;;3.40;1.50;;;22.00;31.30;;;;;;5004134;28;20040;-57
2022/01/20 01:57:44;;;;;;;3.33;1.40;;;22.00;31.30;;;;;;5004286;28;20054;-52
2022/01/20 02:00:13;;;;;;;2.85;1.30;;;22.00;31.30;;;;;;5005134;28;20019;-56
2022/01/20 02:02:42;;;;;;;3.85;1.38;;;22.00;31.30;;;;;;5006418;28;20026;-57
2022/01/20 02:05:15;;;;;;;3.05;1.10;;;22.00;31.30;;;;;;5009846;28;20025;-51
2022/01/20 02:18:56;;;;;;;2.85;1.23;;;21.90;31.30;;;;;;5002968;28;20030;-57
2022/01/20 02:21:55;;;;;;;3.00;1.33;;;21.90;31.30;;;;;;4996573;28;20026;-57
2022/01/20 02:24:24;;;;;;;2.90;1.20;;;21.90;31.30;;;;;;5002969;28;20093;-57
2022/01/20 02:26:49;;;;;;;3.03;0.98;;;21.90;31.30;;;;;;5005285;28;20022;-55
2022/01/20 02:29:26;;;;;;;2.38;1.13;;;21.90;31.30;;;;;;5007161;28;20034;-57
2022/01/20 02:31:55;;;;;;;2.65;1.17;;;21.90;31.30;;;;;;5006555;28;20087;-55
2022/01/20 02:34:21;;;;;;;3.42;0.98;;;21.90;31.30;;;;;;5019074;28;20034;-58
2022/01/20 02:36:48;;;;;;;3.33;1.30;;;21.90;32.00;;;;;;5002966;28;20112;-60
2022/01/20 02:40:15;;;;;;;3.33;1.30;;;21.90;31.30;;;;;;5014688;28;20357;-58
2022/01/20 02:45:01;;;;;;;3.17;1.15;;;21.90;31.30;;;;;;5015195;28;20041;-55
2022/01/20 02:47:31;;;;;;;2.47;1.10;;;21.80;31.30;;;;;;5015570;28;20112;-53
2022/01/20 02:49:57;;;;;;;2.88;1.30;;;21.90;31.30;;;;;;5015492;28;20021;-62
2022/01/20 02:52:25;;;;;;;3.60;1.20;;;21.90;31.30;;;;;;5015053;28;20449;-58
2022/01/20 02:54:51;;;;;;;3.35;1.10;;;21.90;31.30;;;;;;5014665;28;20096;-56
2022/01/20 02:57:18;;;;;;;2.00;0.98;;;21.90;31.20;;;;;;5025930;28;20044;-54
2022/01/20 02:59:44;;;;;;;1.80;0.75;;;21.80;31.20;;;;;;5038756;28;20366;-56
2022/01/20 03:02:10;;;;;;;2.50;0.80;;;21.80;31.10;;;;;;5056105;28;20025;-57
2022/01/20 03:04:37;;;;;;;3.08;1.05;;;21.80;31.10;;;;;;5037878;28;20021;-61
2022/01/20 03:07:07;;;;;;;2.28;0.93;;;21.80;31.10;;;;;;5022309;28;20427;-58
2022/01/20 03:09:33;;;;;;;4.35;1.40;;;21.80;31.10;;;;;;5037275;28;20436;-57
2022/01/20 03:12:00;;;;;;;2.38;0.98;;;21.80;31.10;;;;;;5055800;28;20071;-57
2022/01/20 03:14:26;;;;;;;2.83;1.10;;;21.80;31.10;;;;;;5020832;28;20360;-55
2022/01/20 03:16:52;;;;;;;1.65;0.93;;;21.80;31.10;;;;;;5038260;28;20063;-58
2022/01/20 03:19:18;;;;;;;4.13;1.27;;;21.80;31.10;;;;;;5055421;28;20405;-56
2022/01/20 03:21:45;;;;;;;2.60;1.08;;;21.80;31.10;;;;;;5055794;28;20081;-56
2022/01/20 03:24:11;;;;;;;1.88;0.95;;;21.80;31.10;;;;;;5055324;28;20074;-52
2022/01/20 03:26:40;;;;;;;2.45;0.85;;;21.80;31.20;;;;;;5037301;28;20025;-59
2022/01/20 03:29:09;;;;;;;2.80;0.90;;;21.80;31.10;;;;;;5037890;28;20103;-56
2022/01/20 03:31:35;;;;;;;2.65;1.08;;;21.80;31.10;;;;;;5037848;28;20029;-56
2022/01/20 03:34:01;;;;;;;2.05;0.90;;;21.80;31.10;;;;;;5037429;28;20348;-53
2022/01/20 03:36:27;;;;;;;2.38;0.98;;;21.70;31.10;;;;;;5037504;28;20025;-59
2022/01/20 03:39:15;;;;;;;2.92;0.95;;;21.80;31.20;;;;;;5036543;28;20013;-55
2022/01/20 03:41:41;;;;;;;2.13;1.10;;;21.70;31.10;;;;;;5037282;28;20100;-57
2022/01/20 03:44:17;;;;;;;2.65;0.80;;;21.70;31.10;;;;;;5037464;28;20025;-56
2022/01/20 03:46:43;;;;;;;1.85;0.82;;;21.70;31.20;;;;;;5026972;28;20526;-57
2022/01/20 03:49:21;;;;;;;3.75;1.00;;;21.70;31.20;;;;;;5031914;28;20075;-52
2022/01/20 03:51:47;;;;;;;2.35;0.98;;;21.70;31.20;;;;;;5036769;28;20025;-54
2022/01/20 03:54:13;;;;;;;2.38;0.77;;;21.70;31.20;;;;;;5021064;28;20087;-55
2022/01/20 03:57:02;;;;;;;3.20;0.90;;;21.70;31.20;;;;;;5015438;28;20500;-57
2022/01/20 03:59:46;;;;;;;1.80;0.73;;;21.70;31.30;;;;;;5054631;28;20044;-56
2022/01/20 04:02:17;;;;;;;2.55;1.00;;;21.60;31.20;;;;;;5037075;28;20478;-56
2022/01/20 04:05:00;;;;;;;2.22;1.10;;;21.60;31.20;;;;;;5036622;28;20027;-58
2022/01/20 04:07:30;;;;;;;2.35;1.02;;;21.60;31.30;;;;;;5033799;28;20034;-59
2022/01/20 04:09:56;;;;;;;2.85;0.90;;;21.70;31.30;;;;;;5032700;28;20270;-54
2022/01/20 04:12:22;;;;;;;2.45;0.73;;;21.60;31.20;;;;;;5037270;28;20033;-58
2022/01/20 04:14:48;;;;;;;1.55;0.70;;;21.60;31.30;;;;;;5043931;28;20021;-56
2022/01/20 04:17:20;;;;;;;1.67;0.60;;;21.60;31.30;;;;;;5017392;28;20036;-57
2022/01/20 04:19:46;;;;;;;1.63;0.90;;;21.70;31.30;;;;;;5034052;28;20022;-57
2022/01/20 04:22:13;;;;;;;2.15;0.80;;;21.70;31.30;;;;;;5037830;28;20036;-54
2022/01/20 04:24:39;;;;;;;2.03;0.80;;;21.60;31.20;;;;;;5037123;28;20035;-56
2022/01/20 04:27:05;;;;;;;1.88;0.75;;;21.60;31.20;;;;;;5036033;28;20032;-53
2022/01/20 04:29:34;;;;;;;3.00;1.05;;;21.70;31.30;;;;;;5037229;28;20407;-62
2022/01/20 04:32:00;;;;;;;1.60;0.57;;;21.60;31.20;;;;;;5054540;28;20056;-57
2022/01/20 04:34:26;;;;;;;1.83;0.77;;;21.60;31.20;;;;;;5036966;28;20033;-51
2022/01/20 04:36:53;;;;;;;2.55;0.70;;;21.60;31.20;;;;;;5036362;28;20396;-55
2022/01/20 04:39:23;;;;;;;2.00;0.75;;;21.60;31.20;;;;;;5053312;28;20029;-58
2022/01/20 04:41:51;;;;;;;2.17;0.73;;;21.60;31.20;;;;;;5036461;28;20040;-55
2022/01/20 04:44:45;;;;;;;3.47;0.90;;;21.60;31.20;;;;;;5028215;28;20170;-54
2022/01/20 04:47:17;;;;;;;1.60;0.60;;;21.60;31.20;;;;;;5036498;28;20056;-55
2022/01/20 04:57:56;;;;;;;2.60;0.82;;;21.50;31.10;;;;;;5046788;28;20479;-59
2022/01/20 05:00:22;;;;;;;2.03;0.63;;;21.50;31.10;;;;;;5012062;28;20065;-57
2022/01/20 05:03:06;;;;;;;1.65;0.80;;;21.50;31.10;;;;;;5042723;28;20045;-57
2022/01/20 05:05:34;;;;;;;1.80;0.60;;;21.50;31.10;;;;;;5000181;28;20033;-60
2022/01/20 05:08:18;;;;;;;2.08;0.85;;;21.50;31.00;;;;;;5017768;28;20352;-55
2022/01/20 05:10:45;;;;;;;2.28;0.80;;;21.50;31.00;;;;;;5034557;28;20053;-51
2022/01/20 05:13:22;;;;;;;1.92;0.90;;;21.50;31.00;;;;;;5027631;28;20052;-54
2022/01/20 05:15:48;;;;;;;2.53;0.82;;;21.50;31.00;;;;;;5050367;28;20108;-51
2022/01/20 05:18:13;;;;;;;1.73;0.98;;;21.50;31.00;;;;;;5021368;28;20524;-54
2022/01/20 05:20:39;;;;;;;1.30;0.60;;;21.50;31.00;;;;;;5000377;28;20108;-54
2022/01/20 05:23:05;;;;;;;1.77;0.90;;;21.50;31.00;;;;;;5027973;28;20456;-57
2022/01/20 05:25:31;;;;;;;2.28;0.70;;;21.50;31.00;;;;;;5021406;28;20057;-55
2022/01/20 05:27:57;;;;;;;2.30;0.50;;;21.50;31.00;;;;;;5026661;28;20435;-56
2022/01/20 05:30:23;;;;;;;2.38;0.93;;;21.50;31.00;;;;;;5019707;28;20109;-55
2022/01/20 05:33:08;;;;;;;3.42;0.85;;;21.50;31.00;;;;;;5050542;28;20173;-58
2022/01/20 05:35:34;;;;;;;1.80;0.80;;;21.50;31.00;;;;;;5033303;28;20024;-57
2022/01/20 05:38:00;;;;;;;2.20;0.77;;;21.50;31.00;;;;;;5032184;28;20021;-55
2022/01/20 05:40:27;;;;;;;2.30;0.70;;;21.40;31.00;;;;;;5036624;28;20053;-57
2022/01/20 05:42:54;;;;;;;2.45;0.80;;;21.50;31.10;;;;;;5025928;28;20048;-58
2022/01/20 05:45:20;;;;;;;2.25;0.70;;;21.50;31.00;;;;;;5039116;28;20029;-55
2022/01/20 05:47:48;;;;;;;1.23;0.55;;;21.50;31.00;;;;;;5051221;28;20036;-56
2022/01/20 05:50:44;;;;;;;3.05;0.70;;;21.40;31.00;;;;;;5009631;28;20070;-55
2022/01/20 05:53:11;;;;;;;2.35;0.90;;;21.40;31.00;;;;;;5025667;28;20041;-56
2022/01/20 05:55:38;;;;;;;2.20;0.60;;;21.40;31.00;;;;;;5025919;28;20036;-58
2022/01/20 05:58:06;;;;;;;2.10;0.90;;;21.40;30.90;;;;;;5043075;28;20037;-55
2022/01/20 06:00:33;;;;;;;1.50;0.65;;;21.40;30.90;;;;;;5020794;28;20039;-55
2022/01/20 06:05:46;;;;;;;;;;;21.40;30.80;;;;;;5038243;28;20040;-51
2022/01/20 06:08:13;;;;;;;2.17;0.93;;;21.40;30.80;;;;;;5040499;28;19984;-55
2022/01/20 06:10:40;;;;;;;2.85;0.85;;;21.40;30.80;;;;;;5020096;28;20175;-54
2022/01/20 06:13:24;;;;;;;2.22;0.80;;;21.40;30.70;;;;;;5024023;28;20470;-51
2022/01/20 06:15:52;;;;;;;2.78;0.88;;;21.40;30.60;;;;;;5019036;28;20437;-55
2022/01/20 06:18:19;;;;;;;3.03;0.90;;;21.40;30.50;;;;;;5023143;28;20078;-57
2022/01/20 06:20:55;;;;;;;2.08;0.95;;;21.40;30.50;;;;;;5035425;28;20434;-55
2022/01/20 06:23:22;;;;;;;3.47;1.15;;;21.40;30.50;;;;;;5038473;28;20024;-54
2022/01/20 06:25:50;;;;;;;2.97;0.95;;;21.30;30.40;;;;;;5031909;28;20032;-56
2022/01/20 06:28:16;;;;;;;2.17;0.85;;;21.40;30.40;;;;;;5020761;28;20118;-57
2022/01/20 06:30:42;;;;;;;4.18;0.90;;;21.40;30.30;;;;;;5019809;28;20028;-55
2022/01/20 06:33:08;;;;;;;2.85;1.00;;;21.40;30.30;;;;;;5021269;28;20033;-53
2022/01/20 06:35:43;;;;;;;2.35;0.82;;;21.30;30.20;;;;;;5018470;28;20064;-58
2022/01/20 06:38:08;;;;;;;2.47;0.90;;;21.30;30.10;;;;;;5030286;28;20048;-57
2022/01/20 06:40:34;;;;;;;3.28;1.20;;;21.30;30.00;;;;;;5023253;28;20021;-54
2022/01/20 06:43:02;;;;;;;2.42;0.93;;;21.30;30.00;;;;;;5042131;28;20168;-53
2022/01/20 06:45:28;;;;;;;1.50;0.80;;;21.30;30.00;;;;;;5023209;28;20450;-53
2022/01/20 06:48:07;;;;;;;2.72;0.70;;;21.30;30.00;;;;;;5024950;28;20037;-57
2022/01/20 06:50:37;;;;;;;2.75;1.13;;;21.30;30.00;;;;;;5033276;28;20112;-54
2022/01/20 06:53:04;;;;;;;3.03;1.05;;;21.30;29.90;;;;;;5024920;28;20365;-53
2022/01/20 06:55:31;;;;;;;2.90;0.90;;;21.30;29.80;;;;;;5035733;28;20021;-55
2022/01/20 06:57:57;;;;;;;3.20;1.10;;;21.30;29.80;;;;;;5019989;28;20449;-60
2022/01/20 07:00:25;;;;;;;2.00;0.93;;;21.30;29.80;;;;;;5003542;28;20025;-56
2022/01/20 07:02:52;;;;;;;4.38;1.00;;;21.30;30.20;;;;;;5013281;28;20447;-57
2022/01/20 07:05:20;;;;;;;3.38;1.00;;;21.30;29.70;;;;;;5020158;28;20022;-51
2022/01/20 07:07:47;;;;;;;2.85;0.77;;;21.30;29.70;;;;;;5019070;28;20036;-55
2022/01/20 07:10:20;;;;;;;3.72;0.77;;;21.20;29.60;;;;;;5023030;28;20392;-55
2022/01/20 07:12:49;;;;;;;2.60;0.90;;;21.20;29.60;;;;;;5022345;28;20033;-52
2022/01/20 07:15:16;;;;;;;1.40;0.65;;;21.20;29.60;;;;;;5020565;28;20392;-53
2022/01/20 07:17:43;;;;;;;1.33;0.63;;;21.20;29.60;;;;;;5031071;28;20063;-56
2022/01/20 07:20:11;;;;;;;2.00;0.75;;;21.20;29.60;;;;;;5038230;28;20036;-52
2022/01/20 07:22:50;;;;;;;2.40;0.70;;;21.20;29.60;;;;;;5035793;28;20037;-55
2022/01/20 07:25:16;;;;;;;2.08;0.68;;;21.20;29.60;;;;;;5024281;28;20095;-51
2022/01/20 07:27:51;;;;;;;2.83;1.02;;;21.20;29.60;;;;;;5022629;28;20025;-51
2022/01/20 07:30:17;;;;;;;2.53;0.80;;;21.20;29.60;;;;;;5028143;28;20054;-55
2022/01/20 07:32:43;;;;;;;1.55;0.60;;;21.20;29.60;;;;;;5024400;28;20063;-52
2022/01/20 07:35:15;;;;;;;2.38;0.70;;;21.20;29.50;;;;;;5020827;28;20444;-52
2022/01/20 07:37:41;;;;;;;1.23;0.60;;;21.20;29.50;;;;;;5020393;28;20052;-54
2022/01/20 07:40:08;;;;;;;3.53;0.60;;;21.20;29.50;;;;;;5037102;28;20017;-56
2022/01/20 07:42:34;;;;;;;2.63;0.80;;;21.20;29.50;;;;;;5037179;28;20029;-57
2022/01/20 07:45:06;;;;;;;2.17;0.63;;;21.20;29.40;;;;;;5055962;28;20103;-55
2022/01/20 07:47:58;;;;;;;1.40;0.70;;;21.10;29.40;;;;;;5038049;28;20069;-50
2022/01/20 07:50:23;;;;;;;2.20;0.75;;;21.10;29.40;;;;;;5037036;28;20021;-54
2022/01/20 07:52:49;;;;;;;2.80;0.80;;;21.10;29.30;;;;;;5035765;28;20040;-54
2022/01/20 07:55:16;;;;;;;2.30;0.93;;;21.10;29.30;;;;;;5036693;28;20376;-53
2022/01/20 07:57:42;;;;;;;2.05;0.77;;;21.10;29.30;;;;;;5054266;28;20191;-56
2022/01/20 08:00:09;;;;;;;2.28;0.88;;;21.10;29.30;;;;;;5036726;28;20029;-55
2022/01/20 08:02:45;;;;;;;3.28;0.93;;;21.20;29.30;;;;;;5048596;28;20037;-53
2022/01/20 08:05:22;;;;;;;2.85;0.88;;;21.20;29.30;;;;;;5037234;28;20356;-53
2022/01/20 08:07:48;;;;;;;1.70;0.60;;;21.30;29.30;;;;;;5037379;28;20048;-59
2022/01/20 08:10:14;;;;;;;1.75;0.68;;;21.30;29.20;;;;;;5036209;28;20025;-55
2022/01/20 08:12:40;;;;;;;2.55;0.73;;;21.40;29.10;;;;;;5054317;28;20159;-57
2022/01/20 08:15:15;;;;;;;2.47;0.55;;;21.50;29.10;;;;;;5033762;28;20349;-55
2022/01/20 08:17:50;;;;;;;2.47;0.80;;;21.60;29.00;;;;;;5034882;28;20025;-54
2022/01/20 08:20:16;;;;;;;1.20;0.60;;;21.70;28.90;;;;;;5035473;28;20048;-53
2022/01/20 08:22:48;;;;;;;3.10;0.95;;;21.80;28.90;;;;;;5020082;28;20021;-54
2022/01/20 08:25:17;;;;;;;2.75;0.65;;;21.90;28.80;;;;;;5034556;28;20025;-54
2022/01/20 08:27:45;;;;;;;1.98;0.77;;;22.00;28.80;;;;;;5052468;28;20025;-51
2022/01/20 08:30:17;;;;;;;2.08;0.68;;;22.10;28.70;;;;;;5035415;28;20028;-49
2022/01/20 08:32:44;;;;;;;3.95;1.00;;;22.20;28.60;;;;;;5035657;28;20353;-53
2022/01/20 08:35:36;;;;;;;2.58;0.95;;;22.30;28.50;;;;;;5030853;28;20302;-56
2022/01/20 08:38:09;;;;;;;1.98;1.00;;;22.40;28.50;;;;;;5044193;28;20029;-50
2022/01/20 08:40:36;;;;;;;2.15;1.02;;;22.50;28.40;;;;;;5054145;28;20087;-54
2022/01/20 08:43:02;;;;;;;2.63;0.90;;;22.60;28.40;;;;;;5036304;28;20025;-58
2022/01/20 08:45:31;;;;;;;1.52;0.65;;;22.60;28.30;;;;;;5035098;28;20025;-55
2022/01/20 08:47:59;;;;;;;3.30;0.82;;;22.70;28.30;;;;;;5034642;28;21472;-52
2022/01/20 08:50:37;;;;;;;1.80;0.82;;;22.80;28.20;;;;;;5036724;28;20124;-50
2022/01/20 08:53:03;;;;;;;2.33;0.70;;;22.90;28.20;;;;;;5035672;28;20405;-55
2022/01/20 08:55:29;;;;;;;1.70;0.85;;;22.90;28.10;;;;;;5036941;28;20029;-50
2022/01/20 08:58:01;;;;;;;1.58;0.63;;;23.00;28.00;;;;;;5020656;28;20084;-53
2022/01/20 09:00:29;;;;;;;2.38;0.88;;;23.10;28.00;;;;;;5024271;28;20033;-49
2022/01/20 09:03:03;;;;;;;1.35;0.80;;;23.20;27.90;;;;;;5039859;28;20094;-51
2022/01/20 09:05:29;;;;;;;3.80;1.10;;;23.20;27.80;;;;;;5040172;28;20033;-54
2022/01/20 09:08:08;;;;;;;1.92;0.75;;;23.30;27.80;;;;;;5040095;28;20021;-54
2022/01/20 09:10:39;;;;;;;2.53;0.90;;;23.40;27.80;;;;;;5040281;28;20355;-56
2022/01/20 09:15:55;;;;;;;2.00;0.80;;;23.50;27.70;;;;;;5039141;28;20391;-54
2022/01/20 09:18:42;;;;;;;2.47;1.00;;;23.60;27.70;;;;;;5029618;28;20044;-57
2022/01/20 09:21:07;;;;;;;1.92;0.70;;;23.60;27.60;;;;;;5039632;28;20035;-51
2022/01/20 09:23:34;;;;;;;2.78;0.88;;;23.60;27.50;;;;;;5039514;28;20028;-55
2022/01/20 09:26:00;;;;;;;1.90;0.70;;;23.70;27.50;;;;;;5040511;28;20033;-53
2022/01/20 09:28:28;;;;;;;2.00;0.77;;;23.80;27.50;;;;;;5039692;28;20025;-52
2022/01/20 09:30:58;;;;;;;2.92;1.00;;;23.80;27.50;;;;;;5030470;28;20036;-55
2022/01/20 09:33:27;;;;;;;3.53;1.00;;;23.80;27.40;;;;;;5032697;28;20037;-55
2022/01/20 09:35:54;;;;;;;3.13;0.88;;;23.90;27.40;;;;;;5034744;28;20108;-52
2022/01/20 09:38:20;;;;;;;2.80;0.80;;;23.90;27.40;;;;;;5028292;28;20033;-57
2022/01/20 09:40:46;;;;;;;1.98;0.77;;;23.90;27.40;;;;;;5053659;28;20021;-58
2022/01/20 09:43:16;;;;;;;1.60;0.60;;;23.90;27.40;;;;;;5060582;28;20025;-55
2022/01/20 09:45:46;;;;;;;2.80;1.30;;;23.90;27.50;;;;;;5039200;28;20444;-59
2022/01/20 09:48:12;;;;;;;3.33;0.90;;;23.90;27.50;;;;;;5024649;28;20032;-50
2022/01/20 09:50:44;;;;;;;1.90;0.60;;;23.90;27.50;;;;;;5053985;28;20049;-53
2022/01/20 09:53:26;;;;;;;2.90;0.98;;;23.90;27.50;;;;;;5028492;28;20132;-53
2022/01/20 09:56:06;;;;;;;2.42;0.88;;;23.90;27.50;;;;;;5032099;28;20029;-52
2022/01/20 09:58:32;;;;;;;2.03;1.00;;;23.80;27.50;;;;;;5008953;28;20361;-51
2022/01/20 10:00:59;;;;;;;2.92;1.13;;;23.80;27.50;;;;;;5010548;28;20018;-57
2022/01/20 10:03:27;;;;;;;5.45;0.80;;;23.80;27.50;;;;;;5001416;28;20034;-53
2022/01/20 10:05:53;;;;;;;2.95;1.00;;;23.80;27.50;;;;;;4996104;28;20026;-54
2022/01/20 10:08:28;;;;;;;3.22;1.02;;;23.80;27.50;;;;;;5017038;28;20036;-55
2022/01/20 10:11:18;;;;;;;2.25;0.93;;;23.70;27.40;;;;;;5013692;28;20028;-52
2022/01/20 10:14:08;;;;;;;1.52;0.85;;;23.70;27.50;;;;;;4997580;28;20334;-53
2022/01/20 10:17:00;;;;;;;2.30;0.90;;;23.60;27.50;;;;;;5001526;28;20027;-54
2022/01/20 10:19:40;;;;;;;2.53;0.82;;;23.50;27.50;;;;;;5007523;28;20440;-52
2022/01/20 10:22:22;;;;;;;1.70;0.80;;;23.50;28.00;;;;;;5009262;28;20014;-57
2022/01/20 10:25:14;;;;;;;1.38;0.80;;;23.50;27.60;;;;;;5000929;28;20038;-56
2022/01/20 10:27:55;;;;;;;2.40;0.95;;;23.40;27.60;;;;;;5015010;28;20033;-56
2022/01/20 10:30:27;;;;;;;2.45;0.85;;;23.40;27.70;;;;;;5015616;28;20030;-55
2022/01/20 10:32:57;;;;;;;2.63;1.08;;;23.40;27.70;;;;;;4998262;28;20057;-55
2022/01/20 10:35:27;;;;;;;2.42;0.90;;;23.30;27.60;;;;;;5007435;28;20037;-54
2022/01/20 10:38:02;;;;;;;3.28;0.88;;;23.30;27.70;;;;;;5001614;28;20034;-53
2022/01/20 10:40:57;;;;;;;3.78;1.20;;;23.30;27.70;;;;;;5006235;28;20021;-49
2022/01/20 10:43:27;;;;;;;2.55;1.05;;;23.20;27.60;;;;;;5007263;28;20029;-54
2022/01/20 10:46:12;;;;;;;2.13;0.73;;;23.20;27.70;;;;;;5006107;28;20133;-55
2022/01/20 10:48:39;;;;;;;2.22;0.90;;;23.20;27.70;;;;;;5012653;28;20026;-55
2022/01/20 10:51:19;;;;;;;3.72;1.13;;;23.10;27.80;;;;;;5006944;28;20025;-55
2022/01/20 10:54:03;;;;;;;1.43;0.90;;;23.20;27.70;;;;;;5004453;28;20405;-57
2022/01/20 10:56:59;;;;;;;2.60;1.00;;;23.10;27.80;;;;;;5005637;28;20036;-55
2022/01/20 10:59:25;;;;;;;4.05;1.17;;;23.10;28.30;;;;;;5030760;28;20029;-57
2022/01/20 11:02:07;;;;;;;2.85;1.05;;;23.00;27.90;;;;;;5020775;28;20053;-54
2022/01/20 11:04:37;;;;;;;3.72;0.85;;;23.00;27.90;;;;;;5029994;28;20135;-56
2022/01/20 11:07:06;;;;;;;3.72;1.10;;;23.00;28.00;;;;;;5032180;28;20341;-57
2022/01/20 11:09:39;;;;;;;1.92;0.95;;;23.00;28.00;;;;;;5019161;28;20064;-58
2022/01/20 11:12:31;;;;;;;2.65;1.23;;;23.00;28.10;;;;;;5018710;28;20057;-55
2022/01/20 11:15:06;;;;;;;3.33;1.00;;;22.90;28.00;;;;;;5024747;28;20029;-56
2022/01/20 11:17:34;;;;;;;2.58;1.10;;;23.00;28.00;;;;;;5026248;28;20065;-56
2022/01/20 11:20:11;;;;;;;2.83;0.82;;;22.90;28.00;;;;;;5015004;28;20029;-58
2022/01/20 11:22:49;;;;;;;3.05;0.85;;;23.00;28.00;;;;;;5025686;28;20371;-60
2022/01/20 11:25:21;;;;;;;3.55;1.17;;;22.90;28.00;;;;;;5017639;28;20033;-54
2022/01/20 11:28:12;;;;;;;1.60;0.60;;;22.90;28.00;;;;;;5030016;28;20033;-55
2022/01/20 11:31:06;;;;;;;3.67;1.02;;;23.00;28.10;;;;;;5016631;28;20160;-54
2022/01/20 11:33:50;;;;;;;3.85;1.20;;;22.90;28.10;;;;;;5042018;28;20116;-56
2022/01/20 11:36:26;;;;;;;3.05;1.13;;;22.90;28.10;;;;;;5021520;28;20101;-56
2022/01/20 11:39:00;;;;;;;1.88;0.80;;;22.90;28.20;;;;;;5025925;28;20468;-55
2022/01/20 11:41:49;;;;;;;2.53;0.90;;;22.90;28.30;;;;;;5027094;28;20036;-50
2022/01/20 11:44:18;;;;;;;2.70;1.10;;;22.90;28.30;;;;;;5022438;28;20037;-56
2022/01/20 11:46:49;;;;;;;2.88;0.63;;;22.90;28.40;;;;;;5016210;28;20033;-56
2022/01/20 11:49:17;;;;;;;2.08;0.85;;;22.90;28.40;;;;;;5018912;28;20022;-52
2022/01/20 11:51:58;;;;;;;2.50;0.80;;;22.90;28.40;;;;;;5017901;28;20033;-53
2022/01/20 11:54:27;;;;;;;1.75;0.57;;;22.90;28.50;;;;;;5030244;28;20041;-58
2022/01/20 11:57:04;;;;;;;2.08;0.75;;;22.90;28.50;;;;;;5029178;28;20022;-52
2022/01/20 11:59:50;;;;;;;2.50;0.90;;;22.90;28.50;;;;;;5037963;28;20413;-54
2022/01/20 12:02:24;;;;;;;2.28;0.85;;;22.90;28.50;;;;;;5036523;28;20104;-54
2022/01/20 12:04:51;;;;;;;2.13;0.65;;;22.90;28.70;;;;;;5033575;28;20029;-55
2022/01/20 12:07:34;;;;;;;2.05;0.80;;;22.90;28.70;;;;;;5020724;28;20017;-52
2022/01/20 12:10:12;;;;;;;3.10;0.75;;;22.90;28.70;;;;;;5046835;28;20094;-57
2022/01/20 12:12:40;;;;;;;2.33;0.70;;;22.90;28.70;;;;;;5041394;28;20048;-59
2022/01/20 12:15:14;;;;;;;2.80;0.90;;;22.90;28.70;;;;;;5036473;28;20037;-55
2022/01/20 12:17:52;;;;;;;1.63;0.65;;;22.90;28.70;;;;;;5043119;28;20112;-51
2022/01/20 12:20:19;;;;;;;2.42;1.00;;;22.90;28.60;;;;;;5046261;28;20041;-57
2022/01/20 12:22:46;;;;;;;1.73;0.70;;;22.90;28.70;;;;;;5045671;28;20052;-53
2022/01/20 12:25:26;;;;;;;3.90;1.13;;;22.90;28.60;;;;;;5044935;28;20024;-56
2022/01/20 12:28:02;;;;;;;1.95;0.70;;;22.90;28.60;;;;;;5044765;28;20090;-52
2022/01/20 12:30:28;;;;;;;2.40;0.90;;;22.80;28.60;;;;;;5044745;28;20451;-58
2022/01/20 12:33:07;;;;;;;1.98;0.82;;;22.80;28.60;;;;;;5044465;28;20033;-55
2022/01/20 12:35:40;;;;;;;2.70;0.88;;;22.80;28.60;;;;;;5048903;28;20459;-53
2022/01/20 12:38:18;;;;;;;1.88;0.70;;;22.70;28.60;;;;;;5046530;28;20029;-54
2022/01/20 12:40:48;;;;;;;2.33;0.80;;;22.80;28.60;;;;;;5049051;28;20032;-56
2022/01/20 12:43:14;;;;;;;1.52;0.70;;;22.80;28.70;;;;;;5051676;28;20071;-56
2022/01/20 12:45:56;;;;;;;1.55;0.55;;;22.70;28.60;;;;;;5047985;28;20048;-53
2022/01/20 12:48:21;;;;;;;2.30;0.60;;;22.70;28.60;;;;;;5050011;28;20047;-57
2022/01/20 12:50:55;;;;;;;2.38;0.80;;;22.70;28.70;;;;;;5052852;28;20024;-57
2022/01/20 12:53:31;;;;;;;1.80;0.77;;;22.70;28.60;;;;;;5052840;28;20025;-55
2022/01/20 12:55:56;;;;;;;2.47;0.70;;;22.70;28.60;;;;;;5054387;28;20037;-56
2022/01/20 12:58:22;;;;;;;1.77;0.75;;;22.70;28.70;;;;;;5054455;28;20044;-53
2022/01/20 13:01:04;;;;;;;2.42;0.90;;;22.60;28.60;;;;;;5053655;28;20071;-51
2022/01/20 13:03:41;;;;;;;1.80;0.80;;;22.60;28.50;;;;;;5054046;28;20037;-56
2022/01/20 13:06:19;;;;;;;1.85;0.82;;;22.60;28.50;;;;;;5054428;28;20029;-54
2022/01/20 13:09:02;;;;;;;2.00;1.00;;;22.60;28.50;;;;;;5054058;28;20083;-54
2022/01/20 13:11:36;;;;;;;2.38;0.90;;;22.60;28.50;;;;;;5054267;28;20021;-53
2022/01/20 13:14:01;;;;;;;1.80;0.70;;;22.60;28.50;;;;;;5054135;28;20119;-56
2022/01/20 13:16:28;;;;;;;1.63;0.77;;;22.60;28.40;;;;;;5053149;28;20104;-51
2022/01/20 13:18:56;;;;;;;1.73;0.65;;;22.50;28.40;;;;;;5053827;28;20035;-54
2022/01/20 13:21:36;;;;;;;2.17;1.15;;;22.50;28.30;;;;;;5053707;28;20436;-52
2022/01/20 13:24:03;;;;;;;3.17;0.90;;;22.60;28.30;;;;;;5054167;28;20041;-58
2022/01/20 13:26:29;;;;;;;2.22;0.90;;;22.50;28.30;;;;;;5053679;28;20504;-56
2022/01/20 13:28:59;;;;;;;2.67;0.90;;;22.50;28.30;;;;;;5053565;28;20056;-59
2022/01/20 13:31:26;;;;;;;1.55;0.60;;;22.50;28.20;;;;;;5053814;28;20112;-58
2022/01/20 13:33:51;;;;;;;2.47;0.82;;;22.50;28.10;;;;;;5053820;28;20040;-58
2022/01/20 13:36:20;;;;;;;2.65;0.70;;;22.50;28.10;;;;;;5036477;28;20040;-58
2022/01/20 13:38:49;;;;;;;2.63;0.90;;;22.50;28.10;;;;;;5053938;28;20033;-56
2022/01/20 13:41:20;;;;;;;4.35;1.20;;;22.50;28.10;;;;;;5053975;28;20028;-54
2022/01/20 13:46:46;;;;;;;3.42;1.00;;;22.40;27.90;;;;;;5057614;28;20024;-56
2022/01/20 13:49:19;;;;;;;2.30;0.70;;;22.40;28.00;;;;;;5056585;28;20028;-55
2022/01/20 13:51:46;;;;;;;1.98;0.52;;;22.40;27.90;;;;;;5057431;28;20158;-53
2022/01/20 13:54:12;;;;;;;2.03;0.82;;;22.40;27.90;;;;;;5056762;28;20037;-57
2022/01/20 13:56:49;;;;;;;2.63;0.98;;;22.40;27.90;;;;;;5057104;28;20033;-57
2022/01/20 13:59:14;;;;;;;1.98;0.70;;;22.40;27.90;;;;;;5056847;28;20361;-56
2022/01/20 14:01:40;;;;;;;3.28;0.85;;;22.40;27.90;;;;;;5057225;28;20040;-56
2022/01/20 14:04:06;;;;;;;3.20;1.02;;;22.40;27.80;;;;;;5057393;28;20305;-55
2022/01/20 14:06:32;;;;;;;2.40;0.90;;;22.40;27.80;;;;;;5057225;28;20449;-50
2022/01/20 14:08:57;;;;;;;1.80;0.70;;;22.40;27.80;;;;;;5056600;28;20032;-56
2022/01/20 14:11:23;;;;;;;2.90;0.77;;;22.30;27.70;;;;;;5056961;28;20074;-59
2022/01/20 14:13:49;;;;;;;1.92;0.75;;;22.40;27.70;;;;;;5055195;28;20444;-56